Time;durP1;ratioP1;P1;durP2;ratioP2;P2;SDS_P1;SDS_P2;PMS_P1;PMS_P2;Temp;Humidity;BMP_temperature;BMP_pressure;BME280_temperature;BME280_humidity;BME280_pressure;Samples;Min_cycle;Max_cycle;Signal;HPM_P1;HPM_P2
2022/02/16 00:01:49;;;;;;;37.55;6.82;;;;;;;;;;5036437;28;20075;-61
2022/02/16 00:04:15;;;;;;;31.48;6.20;;;;;;;;;;5040832;28;20089;-61
2022/02/16 00:06:42;;;;;;;39.03;6.00;;;;;;;;;;5040375;28;20041;-61
2022/02/16 00:09:08;;;;;;;37.20;6.00;;;;;;;;;;5047111;28;20143;-61
2022/02/16 00:11:34;;;;;;;40.28;6.10;;;;;;;;;;5036894;28;20042;-61
2022/02/16 00:14:00;;;;;;;50.45;6.85;;;;;;;;;;5036658;28;20052;-61
2022/02/16 00:16:26;;;;;;;44.72;7.55;;;;;;;;;;5034687;28;20465;-61
2022/02/16 00:18:52;;;;;;;51.25;8.40;;;;;;;;;;5034653;28;20517;-61
2022/02/16 00:21:18;;;;;;;39.70;6.38;;;;;;;;;;5065757;28;20481;-61
2022/02/16 00:23:44;;;;;;;39.70;7.43;;;;;;;;;;5081794;28;20041;-61
2022/02/16 00:26:10;;;;;;;45.75;6.95;;;;;;;;;;5041269;28;21462;-61
2022/02/16 00:28:37;;;;;;;54.10;7.75;;;;;;;;;;5065992;28;20091;-61
2022/02/16 00:31:05;;;;;;;43.35;6.13;;;;;;;;;;5068074;28;20128;-61
2022/02/16 00:33:31;;;;;;;42.28;7.22;;;;;;;;;;5037739;28;20048;-61
2022/02/16 00:35:57;;;;;;;37.53;5.22;;;;;;;;;;5037583;28;20045;-61
2022/02/16 00:38:23;;;;;;;36.65;5.97;;;;;;;;;;5049194;28;20457;-62
2022/02/16 00:40:49;;;;;;;33.03;6.68;;;;;;;;;;5083800;28;20048;-62
2022/02/16 00:43:15;;;;;;;50.55;7.43;;;;;;;;;;5071266;28;20053;-61
2022/02/16 00:45:41;;;;;;;29.52;5.68;;;;;;;;;;5034592;28;20045;-61
2022/02/16 00:48:08;;;;;;;41.05;5.30;;;;;;;;;;5067119;28;20037;-62
2022/02/16 00:50:34;;;;;;;37.92;6.22;;;;;;;;;;5070943;28;20057;-61
2022/02/16 00:53:00;;;;;;;32.88;4.90;;;;;;;;;;5035204;28;20436;-63
2022/02/16 00:55:26;;;;;;;29.05;5.75;;;;;;;;;;5065644;28;20057;-61
2022/02/16 00:57:52;;;;;;;39.20;5.40;;;;;;;;;;5028889;28;20072;-61
2022/02/16 01:00:18;;;;;;;33.50;5.45;;;;;;;;;;5030800;28;20493;-61
2022/02/16 01:02:44;;;;;;;44.55;5.95;;;;;;;;;;5034124;28;20120;-61
2022/02/16 01:05:10;;;;;;;39.58;5.97;;;;;;;;;;5037145;28;20045;-61
2022/02/16 01:07:37;;;;;;;39.25;6.07;;;;;;;;;;5033818;28;20577;-61
2022/02/16 01:10:03;;;;;;;33.97;5.60;;;;;;;;;;5035675;28;20131;-61
2022/02/16 01:12:29;;;;;;;30.48;5.43;;;;;;;;;;5034117;28;20189;-61
2022/02/16 01:14:56;;;;;;;36.90;6.13;;;;;;;;;;5070315;28;20119;-61
2022/02/16 01:17:22;;;;;;;37.40;5.78;;;;;;;;;;5040770;28;20036;-62
2022/02/16 01:19:48;;;;;;;40.80;5.53;;;;;;;;;;5033915;28;20041;-62
2022/02/16 01:22:14;;;;;;;38.92;5.85;;;;;;;;;;5033828;28;20102;-61
2022/02/16 01:24:40;;;;;;;38.40;7.45;;;;;;;;;;5068309;28;20077;-62
2022/02/16 01:27:07;;;;;;;34.35;6.70;;;;;;;;;;5033310;28;20041;-61
2022/02/16 01:29:33;;;;;;;34.05;5.57;;;;;;;;;;5033645;28;20053;-61
2022/02/16 01:31:59;;;;;;;27.55;6.28;;;;;;;;;;5032689;28;20114;-61
2022/02/16 01:34:25;;;;;;;40.33;6.05;;;;;;;;;;5068301;28;20136;-61
2022/02/16 01:36:51;;;;;;;37.13;6.95;;;;;;;;;;5034845;28;20041;-61
2022/02/16 01:39:18;;;;;;;44.40;8.20;;;;;;;;;;5032235;28;20093;-61
2022/02/16 01:41:44;;;;;;;43.58;8.68;;;;;;;;;;5033116;28;20045;-61
2022/02/16 01:44:10;;;;;;;49.78;10.63;;;;;;;;;;5033264;28;20505;-61
2022/02/16 01:46:49;;;;;;;60.78;12.35;;;;;;;;;;5035336;28;20033;-61
2022/02/16 01:49:15;;;;;;;57.20;12.57;;;;;;;;;;5064611;28;20560;-61
2022/02/16 01:51:41;;;;;;;63.97;13.93;;;;;;;;;;5033974;28;20041;-61
2022/02/16 01:54:09;;;;;;;74.90;15.13;;;;;;;;;;5032072;28;20049;-61
2022/02/16 01:56:36;;;;;;;69.40;15.07;;;;;;;;;;5035243;28;20414;-61
2022/02/16 01:59:02;;;;;;;76.93;17.50;;;;;;;;;;5032570;28;20045;-61
2022/02/16 02:01:28;;;;;;;68.22;17.13;;;;;;;;;;5032709;28;20037;-61
2022/02/16 02:03:54;;;;;;;63.08;16.73;;;;;;;;;;5031614;28;20040;-61
2022/02/16 02:06:20;;;;;;;58.25;13.63;;;;;;;;;;5064374;28;20400;-61
2022/02/16 02:08:47;;;;;;;67.40;16.05;;;;;;;;;;5032602;28;20108;-61
2022/02/16 02:11:13;;;;;;;59.15;15.07;;;;;;;;;;5032796;28;20091;-61
2022/02/16 02:13:39;;;;;;;51.92;14.55;;;;;;;;;;5032161;28;20046;-61
2022/02/16 02:16:05;;;;;;;68.45;16.40;;;;;;;;;;5033884;28;20349;-61
2022/02/16 02:18:32;;;;;;;50.95;14.63;;;;;;;;;;5037305;28;20040;-61
2022/02/16 02:20:58;;;;;;;52.75;14.57;;;;;;;;;;5041866;28;20471;-61
2022/02/16 02:23:24;;;;;;;49.70;12.75;;;;;;;;;;5039202;28;20129;-61
2022/02/16 02:25:54;;;;;;;49.58;13.05;;;;;;;;;;5068310;28;20124;-61
2022/02/16 02:28:22;;;;;;;53.22;10.50;;;;;;;;;;5033818;28;20042;-61
2022/02/16 02:30:48;;;;;;;52.13;12.82;;;;;;;;;;5064076;28;20104;-61
2022/02/16 02:33:15;;;;;;;49.75;11.50;;;;;;;;;;5032186;28;20048;-61
2022/02/16 02:35:41;;;;;;;57.75;12.98;;;;;;;;;;5063326;28;20488;-61
2022/02/16 02:38:08;;;;;;;59.28;11.88;;;;;;;;;;5035287;28;20049;-61
2022/02/16 02:40:34;;;;;;;50.00;10.35;;;;;;;;;;5032166;28;20045;-61
2022/02/16 02:43:01;;;;;;;58.45;11.95;;;;;;;;;;5077582;28;20114;-61
2022/02/16 02:45:27;;;;;;;54.03;12.50;;;;;;;;;;5082612;28;20492;-61
2022/02/16 02:47:53;;;;;;;40.35;11.13;;;;;;;;;;5043324;28;20037;-61
2022/02/16 02:50:19;;;;;;;55.85;14.40;;;;;;;;;;5063331;28;20463;-61
2022/02/16 02:52:45;;;;;;;52.05;13.40;;;;;;;;;;5063749;28;20041;-61
2022/02/16 02:55:13;;;;;;;60.88;14.18;;;;;;;;;;5031691;28;20073;-61
2022/02/16 02:57:39;;;;;;;52.95;13.07;;;;;;;;;;5042958;28;20033;-61
2022/02/16 03:00:08;;;;;;;63.08;14.38;;;;;;;;;;5031777;28;20076;-61
2022/02/16 03:02:34;;;;;;;61.28;15.35;;;;;;;;;;5034598;28;20418;-61
2022/02/16 03:05:01;;;;;;;56.70;14.68;;;;;;;;;;5031228;28;20037;-61
2022/02/16 03:07:27;;;;;;;60.08;18.83;;;;;;;;;;5061335;28;20183;-61
2022/02/16 03:09:54;;;;;;;67.22;15.48;;;;;;;;;;5026763;28;20442;-61
2022/02/16 03:12:20;;;;;;;56.28;16.65;;;;;;;;;;5064830;28;20045;-61
2022/02/16 03:14:46;;;;;;;64.15;17.88;;;;;;;;;;5035347;28;20051;-61
2022/02/16 03:17:12;;;;;;;79.57;17.30;;;;;;;;;;5048928;28;20079;-61
2022/02/16 03:19:38;;;;;;;61.63;16.70;;;;;;;;;;5036552;28;20041;-61
2022/02/16 03:22:05;;;;;;;69.80;17.70;;;;;;;;;;5031773;28;20147;-61
2022/02/16 03:24:31;;;;;;;66.30;19.42;;;;;;;;;;5031005;28;20045;-61
2022/02/16 03:26:57;;;;;;;56.75;18.30;;;;;;;;;;5067340;28;20575;-61
2022/02/16 03:29:23;;;;;;;64.35;18.25;;;;;;;;;;5040567;28;20037;-61
2022/02/16 03:31:49;;;;;;;68.35;21.05;;;;;;;;;;5039420;28;20033;-61
2022/02/16 03:34:16;;;;;;;72.32;21.50;;;;;;;;;;5031570;28;20048;-61
2022/02/16 03:36:42;;;;;;;85.25;25.65;;;;;;;;;;5031511;28;20049;-61
2022/02/16 03:39:09;;;;;;;83.75;26.90;;;;;;;;;;5037292;28;20045;-61
2022/02/16 03:41:35;;;;;;;82.30;24.80;;;;;;;;;;5031541;28;20426;-62
2022/02/16 03:44:01;;;;;;;84.90;27.00;;;;;;;;;;5063531;28;20098;-61
2022/02/16 03:46:27;;;;;;;95.43;29.88;;;;;;;;;;5030652;28;20057;-61
2022/02/16 03:48:53;;;;;;;92.53;29.77;;;;;;;;;;5033364;28;20059;-61
2022/02/16 03:51:19;;;;;;;84.05;29.65;;;;;;;;;;5048823;28;20135;-61
2022/02/16 03:53:46;;;;;;;98.80;29.92;;;;;;;;;;5041802;28;20128;-61
2022/02/16 03:56:12;;;;;;;89.20;30.83;;;;;;;;;;5063239;28;20133;-61
2022/02/16 03:58:38;;;;;;;90.97;30.90;;;;;;;;;;5063108;28;20053;-61
2022/02/16 04:01:04;;;;;;;93.88;31.48;;;;;;;;;;5034149;28;20116;-61
2022/02/16 04:03:30;;;;;;;89.82;29.90;;;;;;;;;;5031254;28;20389;-61
2022/02/16 04:05:56;;;;;;;105.93;31.35;;;;;;;;;;5032902;28;20139;-61
2022/02/16 04:08:22;;;;;;;96.85;29.13;;;;;;;;;;5031270;28;20508;-61
2022/02/16 04:10:49;;;;;;;107.13;30.42;;;;;;;;;;5034320;28;20384;-61
2022/02/16 04:13:15;;;;;;;99.78;32.03;;;;;;;;;;5029344;28;20048;-61
2022/02/16 04:15:41;;;;;;;109.72;32.25;;;;;;;;;;5065707;28;20489;-61
2022/02/16 04:18:07;;;;;;;127.40;35.35;;;;;;;;;;5034700;28;20423;-61
2022/02/16 04:20:33;;;;;;;107.47;31.30;;;;;;;;;;5036685;28;20075;-61
2022/02/16 04:22:59;;;;;;;111.50;33.78;;;;;;;;;;5037334;28;20053;-61
2022/02/16 04:25:25;;;;;;;108.78;34.25;;;;;;;;;;5034399;28;20152;-61
2022/02/16 04:27:51;;;;;;;102.30;31.05;;;;;;;;;;5036351;28;20068;-61
2022/02/16 04:30:17;;;;;;;101.80;33.28;;;;;;;;;;5053069;28;20518;-61
2022/02/16 04:32:44;;;;;;;97.65;31.33;;;;;;;;;;5048625;28;20136;-61
2022/02/16 04:35:10;;;;;;;99.38;31.95;;;;;;;;;;5066608;28;20072;-61
2022/02/16 04:37:36;;;;;;;90.22;30.25;;;;;;;;;;5034654;28;20565;-61
2022/02/16 04:40:03;;;;;;;95.57;29.35;;;;;;;;;;5039193;28;20037;-61
2022/02/16 04:42:29;;;;;;;79.32;29.10;;;;;;;;;;5041543;28;20127;-61
2022/02/16 04:44:55;;;;;;;93.70;31.00;;;;;;;;;;5065414;28;20128;-62
2022/02/16 04:47:22;;;;;;;91.47;30.77;;;;;;;;;;5044948;28;20136;-61
2022/02/16 04:49:48;;;;;;;83.70;29.02;;;;;;;;;;5033495;28;20053;-61
2022/02/16 04:52:14;;;;;;;90.50;31.95;;;;;;;;;;5037101;28;20137;-61
2022/02/16 04:54:40;;;;;;;99.75;31.67;;;;;;;;;;5034006;28;20111;-61
2022/02/16 04:57:06;;;;;;;86.15;29.40;;;;;;;;;;5039288;28;20045;-61
2022/02/16 04:59:33;;;;;;;96.72;31.13;;;;;;;;;;5052690;28;20040;-61
2022/02/16 05:01:59;;;;;;;85.43;29.70;;;;;;;;;;5052878;28;20049;-61
2022/02/16 05:04:25;;;;;;;92.65;31.92;;;;;;;;;;5073770;28;20049;-61
2022/02/16 05:06:51;;;;;;;78.50;28.40;;;;;;;;;;5033990;28;20038;-61
2022/02/16 05:09:17;;;;;;;77.55;28.83;;;;;;;;;;5065023;28;20053;-61
2022/02/16 05:11:43;;;;;;;83.00;28.65;;;;;;;;;;5033892;28;20038;-61
2022/02/16 05:14:09;;;;;;;73.53;26.98;;;;;;;;;;5034694;28;20041;-61
2022/02/16 05:16:36;;;;;;;67.25;25.35;;;;;;;;;;5030969;28;20052;-61
2022/02/16 05:19:03;;;;;;;77.03;26.10;;;;;;;;;;5031966;28;20048;-61
2022/02/16 05:21:29;;;;;;;75.72;25.45;;;;;;;;;;5033440;28;20440;-61
2022/02/16 05:23:55;;;;;;;71.82;24.60;;;;;;;;;;5034580;28;20526;-61
2022/02/16 05:26:21;;;;;;;54.28;21.15;;;;;;;;;;5032892;28;20060;-61
2022/02/16 05:28:48;;;;;;;54.90;21.17;;;;;;;;;;5033440;28;20040;-61
2022/02/16 05:31:14;;;;;;;51.80;21.70;;;;;;;;;;5033913;28;20517;-61
2022/02/16 05:33:40;;;;;;;49.25;20.30;;;;;;;;;;5071546;28;20094;-61
2022/02/16 05:36:06;;;;;;;55.17;20.25;;;;;;;;;;5040451;28;20448;-60
2022/02/16 05:38:35;;;;;;;43.45;19.52;;;;;;;;;;5047459;28;20107;-61
2022/02/16 05:41:01;;;;;;;34.45;16.35;;;;;;;;;;5035736;28;20069;-61
2022/02/16 05:43:27;;;;;;;43.78;16.20;;;;;;;;;;5034212;28;20045;-61
2022/02/16 05:45:53;;;;;;;37.47;16.60;;;;;;;;;;5032835;28;20049;-61
2022/02/16 05:48:20;;;;;;;39.33;17.88;;;;;;;;;;5065426;28;20090;-61
2022/02/16 05:50:47;;;;;;;44.30;19.70;;;;;;;;;;5065129;28;20133;-61
2022/02/16 05:53:14;;;;;;;46.08;20.50;;;;;;;;;;5047526;28;20041;-62
2022/02/16 05:55:40;;;;;;;47.70;21.50;;;;;;;;;;5037145;28;20053;-61
2022/02/16 05:58:07;;;;;;;55.28;23.95;;;;;;;;;;5038239;28;20043;-62
2022/02/16 06:00:33;;;;;;;52.88;23.23;;;;;;;;;;5045701;28;20144;-61
2022/02/16 06:02:59;;;;;;;62.45;25.55;;;;;;;;;;5040534;28;20060;-61
2022/02/16 06:05:25;;;;;;;60.50;26.13;;;;;;;;;;5039373;28;20053;-61
2022/02/16 06:07:51;;;;;;;58.30;27.65;;;;;;;;;;5045917;28;20064;-61
2022/02/16 06:10:18;;;;;;;60.40;27.15;;;;;;;;;;5037523;28;20037;-61
2022/02/16 06:12:44;;;;;;;66.85;29.05;;;;;;;;;;5045495;28;20142;-61
2022/02/16 06:15:11;;;;;;;64.20;29.35;;;;;;;;;;5043358;28;20041;-61
2022/02/16 06:17:38;;;;;;;59.45;28.50;;;;;;;;;;5079635;28;20041;-61
2022/02/16 06:20:04;;;;;;;67.70;28.52;;;;;;;;;;5043827;28;20123;-61
2022/02/16 06:22:30;;;;;;;51.03;24.90;;;;;;;;;;5074545;28;20133;-61
2022/02/16 06:24:56;;;;;;;54.20;23.20;;;;;;;;;;5043404;28;20055;-61
2022/02/16 06:27:23;;;;;;;41.65;20.40;;;;;;;;;;5040158;28;20133;-61
2022/02/16 06:29:49;;;;;;;35.63;17.70;;;;;;;;;;5073907;28;20060;-61
2022/02/16 06:32:15;;;;;;;45.05;19.85;;;;;;;;;;5039788;28;20049;-61
2022/02/16 06:34:41;;;;;;;34.60;16.95;;;;;;;;;;5032987;28;20053;-61
2022/02/16 06:37:07;;;;;;;42.15;18.80;;;;;;;;;;5031394;28;20045;-61
2022/02/16 06:39:33;;;;;;;41.05;17.30;;;;;;;;;;5038681;28;20042;-61
2022/02/16 06:41:59;;;;;;;34.33;17.52;;;;;;;;;;5040649;28;20063;-61
2022/02/16 06:44:26;;;;;;;35.42;17.85;;;;;;;;;;5045024;28;20045;-61
2022/02/16 06:46:52;;;;;;;39.08;17.48;;;;;;;;;;5068990;28;20045;-61
2022/02/16 06:49:18;;;;;;;37.50;16.35;;;;;;;;;;5045342;28;20096;-61
2022/02/16 06:51:44;;;;;;;33.25;15.05;;;;;;;;;;5050269;28;20033;-61
2022/02/16 06:54:10;;;;;;;38.38;16.35;;;;;;;;;;5044707;28;20044;-60
2022/02/16 06:56:36;;;;;;;33.97;15.70;;;;;;;;;;5039384;28;20044;-61
2022/02/16 06:59:02;;;;;;;27.70;14.45;;;;;;;;;;5049720;28;20480;-61
2022/02/16 07:01:29;;;;;;;28.55;13.52;;;;;;;;;;5040708;28;20507;-61
2022/02/16 07:03:55;;;;;;;22.13;11.55;;;;;;;;;;5076241;28;20155;-61
2022/02/16 07:06:21;;;;;;;21.83;11.20;;;;;;;;;;5049964;28;20179;-61
2022/02/16 07:08:47;;;;;;;19.95;11.07;;;;;;;;;;5037227;28;20486;-61
2022/02/16 07:11:13;;;;;;;20.80;10.57;;;;;;;;;;5032013;28;20106;-61
2022/02/16 07:13:39;;;;;;;20.10;9.95;;;;;;;;;;5038073;28;20037;-61
2022/02/16 07:16:06;;;;;;;25.05;10.25;;;;;;;;;;5039311;28;20045;-61
2022/02/16 07:18:33;;;;;;;18.92;8.73;;;;;;;;;;5040148;28;20067;-61
2022/02/16 07:21:00;;;;;;;21.75;9.85;;;;;;;;;;5041432;28;20075;-61
2022/02/16 07:23:26;;;;;;;18.80;8.55;;;;;;;;;;5042277;28;20045;-61
2022/02/16 07:25:52;;;;;;;18.50;8.50;;;;;;;;;;5041081;28;21037;-61
2022/02/16 07:28:18;;;;;;;21.63;8.95;;;;;;;;;;5042282;28;20059;-61
2022/02/16 07:30:48;;;;;;;19.35;8.55;;;;;;;;;;5041861;28;20076;-61
2022/02/16 07:33:14;;;;;;;18.80;8.35;;;;;;;;;;5058626;28;20103;-61
2022/02/16 07:35:41;;;;;;;16.35;7.25;;;;;;;;;;5059490;28;20163;-61
2022/02/16 07:38:07;;;;;;;16.23;6.95;;;;;;;;;;5044510;28;20057;-62
2022/02/16 07:40:33;;;;;;;19.48;8.13;;;;;;;;;;5043243;28;20048;-61
2022/02/16 07:42:59;;;;;;;22.08;9.25;;;;;;;;;;5044078;28;20552;-61
2022/02/16 07:45:26;;;;;;;25.63;9.45;;;;;;;;;;5041847;28;20099;-61
2022/02/16 07:47:52;;;;;;;23.10;9.63;;;;;;;;;;5042518;28;20032;-61
2022/02/16 07:50:18;;;;;;;21.83;8.63;;;;;;;;;;5044397;28;20531;-65
2022/02/16 07:52:45;;;;;;;24.10;9.70;;;;;;;;;;5034175;28;20042;-61
2022/02/16 07:55:12;;;;;;;24.20;9.73;;;;;;;;;;5038098;28;20069;-62
2022/02/16 07:57:38;;;;;;;23.40;10.40;;;;;;;;;;5037928;28;20124;-61
2022/02/16 08:00:05;;;;;;;22.00;11.35;;;;;;;;;;5037199;28;20049;-61
2022/02/16 08:02:31;;;;;;;19.17;9.70;;;;;;;;;;5038766;28;20060;-62
2022/02/16 08:04:57;;;;;;;24.35;11.07;;;;;;;;;;5066682;28;20049;-61
2022/02/16 08:07:24;;;;;;;23.27;11.02;;;;;;;;;;5034215;28;20041;-62
2022/02/16 08:09:50;;;;;;;19.45;11.10;;;;;;;;;;5038494;28;20069;-63
2022/02/16 08:12:16;;;;;;;17.85;10.02;;;;;;;;;;5033996;28;20041;-63
2022/02/16 08:14:43;;;;;;;20.77;10.27;;;;;;;;;;5068928;28;20049;-63
2022/02/16 08:17:09;;;;;;;18.55;9.70;;;;;;;;;;5039002;28;20412;-63
2022/02/16 08:19:36;;;;;;;19.75;9.10;;;;;;;;;;5033780;28;20053;-63
2022/02/16 08:22:02;;;;;;;27.92;9.07;;;;;;;;;;5042427;28;20041;-63
2022/02/16 08:24:29;;;;;;;21.88;9.75;;;;;;;;;;5035522;28;20049;-63
2022/02/16 08:26:55;;;;;;;29.20;10.65;;;;;;;;;;5039334;28;20163;-61
2022/02/16 08:29:24;;;;;;;28.77;9.02;;;;;;;;;;5036930;28;20493;-61
2022/02/16 08:31:50;;;;;;;30.88;9.57;;;;;;;;;;5038878;28;20381;-61
2022/02/16 08:34:17;;;;;;;32.90;9.52;;;;;;;;;;5036466;28;20176;-61
2022/02/16 08:36:43;;;;;;;30.20;9.48;;;;;;;;;;5035681;28;20095;-61
2022/02/16 08:39:09;;;;;;;31.08;10.23;;;;;;;;;;5042041;28;20515;-61
2022/02/16 08:41:36;;;;;;;39.33;9.35;;;;;;;;;;5041666;28;20402;-61
2022/02/16 08:44:02;;;;;;;30.52;9.00;;;;;;;;;;5037029;28;20045;-61
2022/02/16 08:46:28;;;;;;;51.28;9.43;;;;;;;;;;5034311;28;20038;-61
2022/02/16 08:48:55;;;;;;;38.42;8.45;;;;;;;;;;5041562;28;20075;-61
2022/02/16 08:51:22;;;;;;;48.47;8.30;;;;;;;;;;5032765;28;20173;-61
2022/02/16 08:53:48;;;;;;;34.95;7.45;;;;;;;;;;5038212;28;20072;-61
2022/02/16 08:56:14;;;;;;;35.08;6.78;;;;;;;;;;5037583;28;20093;-61
2022/02/16 08:58:40;;;;;;;32.42;6.70;;;;;;;;;;5049512;28;20499;-61
2022/02/16 09:01:06;;;;;;;34.95;5.65;;;;;;;;;;5065128;28;20056;-61
2022/02/16 09:03:33;;;;;;;29.38;5.20;;;;;;;;;;5033376;28;20037;-61
2022/02/16 09:05:59;;;;;;;25.67;5.10;;;;;;;;;;5043371;28;20514;-61
2022/02/16 09:08:25;;;;;;;25.65;5.93;;;;;;;;;;5049001;28;20041;-61
2022/02/16 09:10:51;;;;;;;30.48;5.10;;;;;;;;;;5052570;28;20408;-61
2022/02/16 09:13:17;;;;;;;30.90;4.30;;;;;;;;;;5044804;28;20507;-61
2022/02/16 09:15:43;;;;;;;32.15;5.93;;;;;;;;;;5032023;28;20045;-61
2022/02/16 09:18:10;;;;;;;31.23;3.90;;;;;;;;;;5068240;28;20046;-61
2022/02/16 09:20:36;;;;;;;24.13;4.90;;;;;;;;;;5037538;28;20138;-61
2022/02/16 09:23:02;;;;;;;23.52;3.88;;;;;;;;;;5064904;28;20103;-61
2022/02/16 09:25:30;;;;;;;24.33;4.32;;;;;;;;;;5034057;28;20136;-62
2022/02/16 09:27:56;;;;;;;22.38;4.88;;;;;;;;;;5051669;28;20033;-61
2022/02/16 09:30:22;;;;;;;25.13;4.05;;;;;;;;;;5051331;28;20044;-62
2022/02/16 09:32:49;;;;;;;20.00;4.45;;;;;;;;;;5048505;28;20041;-62
2022/02/16 09:35:15;;;;;;;32.20;4.90;;;;;;;;;;5047387;28;20052;-61
2022/02/16 09:37:41;;;;;;;25.83;4.20;;;;;;;;;;5051421;28;20095;-61
2022/02/16 09:40:07;;;;;;;25.95;5.25;;;;;;;;;;5043808;28;20122;-62
2022/02/16 09:42:34;;;;;;;22.55;4.03;;;;;;;;;;5059828;28;20040;-61
2022/02/16 09:45:01;;;;;;;22.13;3.22;;;;;;;;;;5044831;28;20053;-62
2022/02/16 09:47:29;;;;;;;20.55;3.00;;;;;;;;;;5046820;28;20090;-61
2022/02/16 09:49:55;;;;;;;27.42;4.75;;;;;;;;;;5050653;28;20045;-61
2022/02/16 09:52:22;;;;;;;20.48;2.95;;;;;;;;;;5049659;28;20052;-61
2022/02/16 09:54:48;;;;;;;18.15;2.78;;;;;;;;;;5051475;28;20136;-62
2022/02/16 09:57:15;;;;;;;21.02;3.50;;;;;;;;;;5034315;28;20065;-62
2022/02/16 09:59:41;;;;;;;18.95;3.95;;;;;;;;;;5037509;28;20473;-61
2022/02/16 10:02:09;;;;;;;15.70;2.70;;;;;;;;;;5051638;28;20036;-61
2022/02/16 10:04:37;;;;;;;15.15;2.20;;;;;;;;;;5050456;28;20047;-62
2022/02/16 10:07:04;;;;;;;20.02;2.80;;;;;;;;;;5075373;28;20084;-61
2022/02/16 10:09:31;;;;;;;22.10;3.92;;;;;;;;;;5049363;28;20178;-62
2022/02/16 10:11:59;;;;;;;23.42;3.60;;;;;;;;;;5042101;28;20573;-61
2022/02/16 10:14:29;;;;;;;16.02;3.03;;;;;;;;;;5035267;28;20041;-62
2022/02/16 10:16:56;;;;;;;21.33;3.42;;;;;;;;;;5048037;28;20053;-61
2022/02/16 10:19:22;;;;;;;14.52;2.80;;;;;;;;;;5048221;28;20401;-61
2022/02/16 10:21:59;;;;;;;19.95;3.05;;;;;;;;;;5039920;28;20045;-61
2022/02/16 10:24:25;;;;;;;20.13;2.47;;;;;;;;;;5073197;28;20041;-61
2022/02/16 10:26:53;;;;;;;20.83;2.45;;;;;;;;;;5048043;28;20049;-61
2022/02/16 10:29:21;;;;;;;13.35;3.13;;;;;;;;;;5051313;28;20052;-61
2022/02/16 10:31:47;;;;;;;15.93;3.58;;;;;;;;;;5034197;28;20056;-61
2022/02/16 10:34:14;;;;;;;20.35;3.22;;;;;;;;;;5032679;28;20037;-62
2022/02/16 10:36:40;;;;;;;17.83;2.97;;;;;;;;;;5035789;28;20052;-63
2022/02/16 10:39:08;;;;;;;13.68;2.85;;;;;;;;;;5044094;28;20037;-63
2022/02/16 10:41:45;;;;;;;18.52;2.95;;;;;;;;;;5046727;28;20107;-61
2022/02/16 10:44:16;;;;;;;20.35;3.30;;;;;;;;;;5037054;28;20091;-62
2022/02/16 10:46:42;;;;;;;16.20;2.90;;;;;;;;;;5040577;28;20048;-61
2022/02/16 10:49:15;;;;;;;18.95;2.55;;;;;;;;;;5041178;28;20127;-61
2022/02/16 10:51:42;;;;;;;18.20;2.53;;;;;;;;;;5036855;28;20369;-61
2022/02/16 10:54:11;;;;;;;15.82;3.00;;;;;;;;;;5031257;28;20077;-61
2022/02/16 10:56:37;;;;;;;20.88;2.60;;;;;;;;;;5046921;28;20049;-61
2022/02/16 10:59:03;;;;;;;21.55;3.58;;;;;;;;;;5032584;28;20037;-61
2022/02/16 11:01:29;;;;;;;16.52;3.53;;;;;;;;;;5031484;28;20453;-61
2022/02/16 11:03:57;;;;;;;16.83;3.45;;;;;;;;;;5039263;28;20087;-61
2022/02/16 11:06:24;;;;;;;21.20;2.75;;;;;;;;;;5038218;28;20048;-61
2022/02/16 11:08:52;;;;;;;16.75;2.97;;;;;;;;;;5038786;28;20509;-61
2022/02/16 11:11:18;;;;;;;25.17;3.13;;;;;;;;;;5079923;28;20358;-62
2022/02/16 11:13:44;;;;;;;24.40;3.72;;;;;;;;;;5048871;28;20041;-61
2022/02/16 11:16:11;;;;;;;16.65;2.78;;;;;;;;;;5049974;28;20037;-61
2022/02/16 11:18:45;;;;;;;23.42;3.53;;;;;;;;;;5044608;28;20500;-61
2022/02/16 11:21:14;;;;;;;21.27;2.92;;;;;;;;;;5045163;28;20049;-61
2022/02/16 11:23:42;;;;;;;17.73;2.88;;;;;;;;;;5041294;28;20049;-61
2022/02/16 11:26:27;;;;;;;20.50;3.25;;;;;;;;;;5045383;28;20041;-62
2022/02/16 11:28:53;;;;;;;19.83;5.38;;;;;;;;;;5042398;28;20038;-61
2022/02/16 11:31:29;;;;;;;16.80;3.20;;;;;;;;;;5039757;28;20385;-61
2022/02/16 11:34:11;;;;;;;20.75;3.00;;;;;;;;;;5057429;28;20067;-61
2022/02/16 11:36:46;;;;;;;20.13;3.65;;;;;;;;;;5041634;28;20037;-61
2022/02/16 11:39:32;;;;;;;17.55;3.50;;;;;;;;;;5074982;28;20049;-61
2022/02/16 11:41:59;;;;;;;19.00;2.72;;;;;;;;;;5041970;28;20590;-62
2022/02/16 11:44:45;;;;;;;19.33;3.75;;;;;;;;;;5042244;28;20053;-61
2022/02/16 11:47:11;;;;;;;17.60;2.95;;;;;;;;;;5042112;28;20157;-62
2022/02/16 11:49:37;;;;;;;21.67;3.25;;;;;;;;;;5073027;28;20060;-61
2022/02/16 11:52:23;;;;;;;23.23;3.55;;;;;;;;;;5040048;28;20041;-61
2022/02/16 11:54:55;;;;;;;22.60;3.75;;;;;;;;;;5041545;28;20560;-61
2022/02/16 11:57:32;;;;;;;19.90;3.38;;;;;;;;;;5040512;28;20120;-61
2022/02/16 11:59:59;;;;;;;15.98;3.40;;;;;;;;;;5042601;28;20057;-61
2022/02/16 12:02:25;;;;;;;19.08;4.28;;;;;;;;;;5042400;28;20095;-73
2022/02/16 12:04:56;;;;;;;26.25;3.85;;;;;;;;;;5040293;28;20126;-61
2022/02/16 12:07:22;;;;;;;21.45;3.58;;;;;;;;;;5045851;28;20485;-61
2022/02/16 12:10:07;;;;;;;17.25;2.78;;;;;;;;;;5045823;28;20049;-61
2022/02/16 12:12:33;;;;;;;19.02;3.33;;;;;;;;;;5043320;28;20037;-61
2022/02/16 12:14:59;;;;;;;19.38;3.67;;;;;;;;;;5044527;28;20049;-61
2022/02/16 12:17:26;;;;;;;16.27;2.72;;;;;;;;;;5042974;28;20042;-62
2022/02/16 12:19:53;;;;;;;23.55;3.90;;;;;;;;;;5041832;28;20526;-61
2022/02/16 12:22:20;;;;;;;24.00;4.30;;;;;;;;;;5042639;28;20037;-60
2022/02/16 12:24:47;;;;;;;20.20;3.70;;;;;;;;;;5042493;28;20101;-61
2022/02/16 12:27:15;;;;;;;25.15;3.67;;;;;;;;;;5042552;28;20037;-61
2022/02/16 12:29:41;;;;;;;19.88;3.72;;;;;;;;;;5042474;28;20060;-61
2022/02/16 12:32:08;;;;;;;21.65;4.20;;;;;;;;;;5044474;28;20445;-61
2022/02/16 12:34:35;;;;;;;25.65;4.45;;;;;;;;;;5042285;28;20045;-61
2022/02/16 12:37:03;;;;;;;29.05;4.88;;;;;;;;;;5047291;28;20092;-61
2022/02/16 12:39:30;;;;;;;16.40;3.53;;;;;;;;;;5045946;28;20049;-61
2022/02/16 12:42:05;;;;;;;23.77;5.20;;;;;;;;;;5044515;28;20128;-61
2022/02/16 12:44:32;;;;;;;24.55;4.15;;;;;;;;;;5044754;28;20081;-61
2022/02/16 12:46:58;;;;;;;28.92;5.68;;;;;;;;;;5046943;28;20485;-61
2022/02/16 12:49:26;;;;;;;14.57;3.53;;;;;;;;;;5049755;28;20055;-61
2022/02/16 12:51:53;;;;;;;25.80;4.90;;;;;;;;;;5053159;28;20041;-61
2022/02/16 12:54:22;;;;;;;26.33;4.80;;;;;;;;;;5041279;28;20054;-61
2022/02/16 12:56:49;;;;;;;28.05;4.97;;;;;;;;;;5072889;28;20049;-61
2022/02/16 12:59:23;;;;;;;25.85;3.90;;;;;;;;;;5034368;28;20103;-61
2022/02/16 13:01:55;;;;;;;25.80;5.30;;;;;;;;;;5037917;28;20037;-61
2022/02/16 13:04:22;;;;;;;24.02;4.05;;;;;;;;;;5052830;28;20041;-61
2022/02/16 13:06:50;;;;;;;21.92;4.45;;;;;;;;;;5040460;28;20042;-61
2022/02/16 13:09:18;;;;;;;23.17;4.63;;;;;;;;;;5043711;28;20045;-61
2022/02/16 13:11:51;;;;;;;22.58;4.32;;;;;;;;;;5038486;28;20045;-62
2022/02/16 13:14:18;;;;;;;26.60;4.80;;;;;;;;;;5037005;28;20128;-61
2022/02/16 13:16:55;;;;;;;20.90;4.20;;;;;;;;;;5044935;28;20033;-61
2022/02/16 13:19:41;;;;;;;33.85;4.60;;;;;;;;;;5051425;28;20488;-61
2022/02/16 13:22:07;;;;;;;31.05;4.50;;;;;;;;;;5049585;28;20142;-62
2022/02/16 13:24:34;;;;;;;26.13;5.07;;;;;;;;;;5042386;28;20099;-61
2022/02/16 13:27:04;;;;;;;27.23;4.65;;;;;;;;;;5067628;28;20566;-62
2022/02/16 13:29:30;;;;;;;25.13;5.15;;;;;;;;;;5040298;28;20041;-62
2022/02/16 13:31:56;;;;;;;28.05;5.18;;;;;;;;;;5037454;28;20068;-61
2022/02/16 13:34:23;;;;;;;21.98;4.07;;;;;;;;;;5033867;28;20038;-61
2022/02/16 13:36:49;;;;;;;29.27;5.72;;;;;;;;;;5041304;28;20029;-61
2022/02/16 13:39:16;;;;;;;37.00;5.43;;;;;;;;;;5033780;28;20211;-62
2022/02/16 13:41:51;;;;;;;26.67;5.65;;;;;;;;;;5034284;28;20051;-62
2022/02/16 13:44:22;;;;;;;32.75;5.50;;;;;;;;;;5067198;28;20130;-61
2022/02/16 13:46:49;;;;;;;23.58;4.85;;;;;;;;;;5036632;28;20076;-61
2022/02/16 13:49:19;;;;;;;27.33;4.68;;;;;;;;;;5037924;28;20094;-61
2022/02/16 13:51:49;;;;;;;31.45;6.05;;;;;;;;;;5050053;28;20077;-61
2022/02/16 13:54:18;;;;;;;27.90;5.72;;;;;;;;;;5051319;28;20072;-61
2022/02/16 13:56:48;;;;;;;28.27;5.30;;;;;;;;;;5046293;28;20041;-62
2022/02/16 13:59:14;;;;;;;30.58;5.13;;;;;;;;;;5035114;28;20041;-62
2022/02/16 14:01:40;;;;;;;35.45;5.28;;;;;;;;;;5033181;28;20073;-61
2022/02/16 14:04:08;;;;;;;34.45;5.38;;;;;;;;;;5042668;28;20045;-61
2022/02/16 14:06:35;;;;;;;35.38;6.85;;;;;;;;;;5032971;28;20045;-61
2022/02/16 14:09:03;;;;;;;34.30;5.70;;;;;;;;;;5042884;28;20076;-62
2022/02/16 14:11:30;;;;;;;40.78;6.55;;;;;;;;;;5049195;28;20088;-62
2022/02/16 14:13:57;;;;;;;46.08;6.97;;;;;;;;;;5043197;28;20041;-62
2022/02/16 14:16:25;;;;;;;37.50;8.07;;;;;;;;;;5040122;28;20045;-62
2022/02/16 14:21:38;;;;;;;36.97;7.07;;;;;;;;;;5063399;28;20045;-61
2022/02/16 14:24:05;;;;;;;42.25;7.60;;;;;;;;;;5037328;28;20418;-61
2022/02/16 14:26:31;;;;;;;42.38;8.05;;;;;;;;;;5031879;28;20128;-62